Terminal Aerodrome Forecast
Issued by NWS Charleston, WV

Home | Current Version | Previous Version | Text Only | Print | Product List | Glossary On
Versions: 1 2 3 4 5 6 7 8 9 10 11 12 13 14 15 16 17 18 19 20 21 22 23
000
FTUS41 KRLX 050959 AAA
TAFCRW
TAF AMD
KCRW 050959Z 0510/0606 VRB03KT 6SM BR FEW001
      TEMPO 0510/0511 3SM BR
     FM051100 00000KT 3SM BR SCT001
      TEMPO 0511/0513 1SM BR BKN001
     FM051400 18004KT P6SM BKN200
     FM051900 13005KT P6SM BKN040
     FM052300 00000KT P6SM SCT040
     FM060500 00000KT 5SM BR SCT080=

USA.gov is the U.S. government's official web portal to all federal, state and local government web resources and services.